createdAt,value
2022-12-25T00:01:26.822Z,28.48
2022-12-25T00:03:53.706Z,30.48
2022-12-25T00:06:20.972Z,28.80
2022-12-25T00:08:47.762Z,26.85
2022-12-25T00:11:19.551Z,28.98
2022-12-25T00:13:47.217Z,30.60
2022-12-25T00:16:24.371Z,29.77
2022-12-25T00:18:52.087Z,32.30
2022-12-25T00:21:21.240Z,31.83
2022-12-25T00:23:48.611Z,29.10
2022-12-25T00:26:17.688Z,29.15
2022-12-25T00:28:44.896Z,28.90
2022-12-25T00:31:17.552Z,26.27
2022-12-25T00:33:47.501Z,27.77
2022-12-25T00:36:18.047Z,28.55
2022-12-25T00:38:46.056Z,27.50
2022-12-25T00:41:43.170Z,30.05
2022-12-25T00:44:13.622Z,27.73
2022-12-25T00:46:41.647Z,28.27
2022-12-25T00:49:08.431Z,26.75
2022-12-25T00:51:35.145Z,30.80
2022-12-25T00:54:01.927Z,26.63
2022-12-25T00:56:28.940Z,29.05
2022-12-25T00:58:56.131Z,25.80
2022-12-25T01:01:22.974Z,26.63
2022-12-25T01:03:49.675Z,26.88
2022-12-25T01:06:16.471Z,28.08
2022-12-25T01:09:03.694Z,26.35
2022-12-25T01:11:32.232Z,25.25
2022-12-25T01:13:59.322Z,26.73
2022-12-25T01:16:27.449Z,26.75
2022-12-25T01:18:54.553Z,26.95
2022-12-25T01:21:22.350Z,27.08
2022-12-25T01:23:52.407Z,26.27
2022-12-25T01:26:21.945Z,26.40
2022-12-25T01:28:50.179Z,26.80
2022-12-25T01:31:21.250Z,24.42
2022-12-25T01:33:48.102Z,25.00
2022-12-25T01:36:21.094Z,25.58
2022-12-25T01:38:48.863Z,25.13
2022-12-25T01:41:18.468Z,24.52
2022-12-25T01:44:15.658Z,25.27
2022-12-25T01:46:43.759Z,27.33
2022-12-25T01:49:21.577Z,25.17
2022-12-25T01:51:54.320Z,26.15
2022-12-25T01:54:28.660Z,26.08
2022-12-25T01:56:59.759Z,27.17
2022-12-25T01:59:28.747Z,25.67
2022-12-25T02:01:57.082Z,25.33
2022-12-25T02:04:45.774Z,28.25
2022-12-25T02:07:22.536Z,25.25
2022-12-25T02:09:50.417Z,22.83
2022-12-25T02:12:31.152Z,26.67
2022-12-25T02:15:06.085Z,22.73
2022-12-25T02:17:54.768Z,24.15
2022-12-25T02:20:24.469Z,23.98
2022-12-25T02:23:04.540Z,25.25
2022-12-25T02:26:31.507Z,26.23
2022-12-25T02:29:10.266Z,24.85
2022-12-25T02:31:51.350Z,25.42
2022-12-25T02:34:46.306Z,24.95
2022-12-25T02:37:22.573Z,25.40
2022-12-25T02:40:15.606Z,24.40
2022-12-25T02:43:16.587Z,25.37
2022-12-25T02:46:19.180Z,26.92
2022-12-25T02:49:11.101Z,27.40
2022-12-25T02:52:06.960Z,24.83
2022-12-25T02:55:04.730Z,24.77
2022-12-25T02:58:00.030Z,24.92
2022-12-25T03:00:45.154Z,27.08
2022-12-25T03:03:32.977Z,27.10
2022-12-25T03:06:22.573Z,25.65
2022-12-25T03:09:15.631Z,25.25
2022-12-25T03:11:44.967Z,23.20
2022-12-25T03:14:30.227Z,24.33
2022-12-25T03:16:59.125Z,23.58
2022-12-25T03:19:49.393Z,23.35
2022-12-25T03:22:46.779Z,22.80
2022-12-25T03:25:32.975Z,23.95
2022-12-25T03:28:00.600Z,24.67
2022-12-25T03:31:02.666Z,26.80
2022-12-25T03:34:34.455Z,22.75
2022-12-25T03:37:42.663Z,23.83
2022-12-25T03:41:01.384Z,22.33
2022-12-25T03:44:31.413Z,25.52
2022-12-25T03:47:39.731Z,22.52
2022-12-25T03:50:36.174Z,24.08
2022-12-25T03:53:36.634Z,27.63
2022-12-25T03:56:24.479Z,25.13
2022-12-25T03:59:23.106Z,24.23
2022-12-25T04:02:10.639Z,23.55
2022-12-25T04:04:57.046Z,25.33
2022-12-25T04:07:42.721Z,24.50
2022-12-25T04:10:28.967Z,23.05
2022-12-25T04:13:14.118Z,24.02
2022-12-25T04:15:59.310Z,22.42
2022-12-25T04:18:44.531Z,24.55
2022-12-25T04:21:29.750Z,25.00
2022-12-25T04:24:14.995Z,26.27
2022-12-25T04:27:00.030Z,23.85
2022-12-25T04:29:45.262Z,24.60
2022-12-25T04:32:30.316Z,26.73
2022-12-25T04:35:15.954Z,25.15
2022-12-25T04:37:42.621Z,23.92
2022-12-25T04:40:10.189Z,25.90
2022-12-25T04:42:36.862Z,24.23
2022-12-25T04:45:04.087Z,25.02
2022-12-25T04:47:30.915Z,25.25
2022-12-25T04:49:57.667Z,25.38
2022-12-25T04:52:24.389Z,25.95
2022-12-25T04:54:51.084Z,26.60
2022-12-25T04:57:17.724Z,22.25
2022-12-25T04:59:44.427Z,24.45
2022-12-25T05:02:12.078Z,23.75
2022-12-25T05:04:38.762Z,24.70
2022-12-25T05:07:05.385Z,23.63
2022-12-25T05:09:32.143Z,23.95
2022-12-25T05:11:58.811Z,23.17
2022-12-25T05:14:25.463Z,28.85
2022-12-25T05:16:52.223Z,24.10
2022-12-25T05:19:18.976Z,25.58
2022-12-25T05:21:45.748Z,23.98
2022-12-25T05:24:12.567Z,25.60
2022-12-25T05:26:39.217Z,21.73
2022-12-25T05:29:06.186Z,25.40
2022-12-25T05:31:33.201Z,24.95
2022-12-25T05:34:00.054Z,25.77
2022-12-25T05:36:27.275Z,23.35
2022-12-25T05:38:54.115Z,25.20
2022-12-25T05:41:20.831Z,23.75
2022-12-25T05:43:47.520Z,24.83
2022-12-25T05:46:14.770Z,21.50
2022-12-25T05:48:41.498Z,25.67
2022-12-25T05:51:11.888Z,23.95
2022-12-25T05:53:38.974Z,23.92
2022-12-25T05:56:07.971Z,24.30
2022-12-25T05:58:38.245Z,23.58
2022-12-25T06:01:11.944Z,27.48
2022-12-25T06:03:39.148Z,25.07
2022-12-25T06:06:07.336Z,24.55
2022-12-25T06:08:34.753Z,22.95
2022-12-25T06:11:06.919Z,24.77
2022-12-25T06:13:35.235Z,24.15
2022-12-25T06:16:11.625Z,22.92
2022-12-25T06:18:42.246Z,23.17
2022-12-25T06:21:11.337Z,22.65
2022-12-25T06:23:39.506Z,24.08
2022-12-25T06:26:13.727Z,23.00
2022-12-25T06:28:41.059Z,24.45
2022-12-25T06:31:09.183Z,23.10
2022-12-25T06:33:36.545Z,23.30
2022-12-25T06:36:15.969Z,21.77
2022-12-25T06:38:43.545Z,21.95
2022-12-25T06:41:14.767Z,22.25
2022-12-25T06:43:41.468Z,21.42
2022-12-25T06:46:11.883Z,22.67
2022-12-25T06:48:41.098Z,20.70
2022-12-25T06:51:08.113Z,24.30
2022-12-25T06:53:40.635Z,23.05
2022-12-25T06:56:15.728Z,22.73
2022-12-25T06:58:47.681Z,21.15
2022-12-25T07:01:28.792Z,22.45
2022-12-25T07:04:04.099Z,23.33
2022-12-25T07:06:31.014Z,23.05
2022-12-25T07:08:57.876Z,23.63
2022-12-25T07:11:25.142Z,22.45
2022-12-25T07:13:51.995Z,22.70
2022-12-25T07:16:19.156Z,19.25
2022-12-25T07:18:45.941Z,19.73
2022-12-25T07:21:16.491Z,20.90
2022-12-25T07:23:44.607Z,23.05
2022-12-25T07:26:13.652Z,23.58
2022-12-25T07:28:40.790Z,23.63
2022-12-25T07:31:12.457Z,22.17
2022-12-25T07:33:39.239Z,21.13
2022-12-25T07:36:07.569Z,22.48
2022-12-25T07:38:34.707Z,22.25
2022-12-25T07:41:01.816Z,20.52
2022-12-25T07:43:28.571Z,20.48
2022-12-25T07:46:00.611Z,20.27
2022-12-25T07:48:28.781Z,23.30
2022-12-25T07:51:00.525Z,23.35
2022-12-25T07:53:27.912Z,21.40
2022-12-25T07:56:03.788Z,24.27
2022-12-25T07:58:31.801Z,20.10
2022-12-25T08:01:35.595Z,24.33
2022-12-25T08:04:03.238Z,22.88
2022-12-25T08:06:34.327Z,26.33
2022-12-25T08:09:12.608Z,22.58
2022-12-25T08:11:45.064Z,23.42
2022-12-25T08:14:11.824Z,22.10
2022-12-25T08:16:42.283Z,22.83
2022-12-25T08:19:09.572Z,25.48
2022-12-25T08:21:37.363Z,22.65
2022-12-25T08:24:04.658Z,22.75
2022-12-25T08:26:31.322Z,25.13
2022-12-25T08:28:57.999Z,20.83
2022-12-25T08:31:28.778Z,23.15
2022-12-25T08:33:58.353Z,23.88
2022-12-25T08:36:25.754Z,24.30
2022-12-25T08:39:00.319Z,24.02
2022-12-25T08:41:29.672Z,24.25
2022-12-25T08:43:56.433Z,24.00
2022-12-25T08:46:23.787Z,22.52
2022-12-25T08:48:51.065Z,20.63
2022-12-25T08:51:21.166Z,23.45
2022-12-25T08:53:49.846Z,25.17
2022-12-25T08:56:18.121Z,22.20
2022-12-25T08:58:45.510Z,22.65
2022-12-25T09:01:13.740Z,23.67
2022-12-25T09:03:41.363Z,31.08
2022-12-25T09:06:12.693Z,30.67
2022-12-25T09:08:47.730Z,25.90
2022-12-25T09:11:16.627Z,29.17
2022-12-25T09:13:43.459Z,28.20
2022-12-25T09:16:14.255Z,28.38
2022-12-25T09:18:41.319Z,26.60
2022-12-25T09:21:12.443Z,26.73
2022-12-25T09:23:39.254Z,29.75
2022-12-25T09:26:10.623Z,27.52
2022-12-25T09:28:37.374Z,26.40
2022-12-25T09:31:05.200Z,26.50
2022-12-25T09:33:32.234Z,29.27
2022-12-25T09:36:08.223Z,28.98
2022-12-25T09:38:35.761Z,27.77
2022-12-25T09:41:36.323Z,29.95
2022-12-25T09:44:15.447Z,27.58
2022-12-25T09:46:48.722Z,26.92
2022-12-25T09:49:42.723Z,30.55
2022-12-25T09:52:25.335Z,31.70
2022-12-25T09:55:08.179Z,28.67
2022-12-25T09:57:34.917Z,27.77
2022-12-25T10:00:01.685Z,29.65
2022-12-25T10:02:52.562Z,27.05
2022-12-25T10:05:55.918Z,23.27
2022-12-25T10:11:55.745Z,25.23
2022-12-25T10:15:10.698Z,22.75
2022-12-25T10:18:38.304Z,23.30
2022-12-25T10:21:13.188Z,23.50
2022-12-25T10:24:08.317Z,24.77
2022-12-25T10:26:35.520Z,21.25
2022-12-25T10:29:13.712Z,23.50
2022-12-25T10:31:43.860Z,17.75
2022-12-25T10:34:13.853Z,21.27
2022-12-25T10:36:42.552Z,19.58
2022-12-25T10:39:21.465Z,18.77
2022-12-25T10:42:22.204Z,20.92
2022-12-25T10:45:09.055Z,17.08
2022-12-25T10:47:42.589Z,19.50
2022-12-25T10:50:21.535Z,17.92
2022-12-25T10:53:04.678Z,18.63
2022-12-25T10:55:32.847Z,18.30
2022-12-25T10:58:01.810Z,20.23
2022-12-25T11:00:31.750Z,17.90
2022-12-25T11:02:59.393Z,18.45
2022-12-25T11:05:35.684Z,19.55
2022-12-25T11:08:03.846Z,17.30
2022-12-25T11:10:59.137Z,19.40
2022-12-25T11:13:30.843Z,17.98
2022-12-25T11:16:10.693Z,16.13
2022-12-25T11:18:53.042Z,20.50
2022-12-25T11:21:30.299Z,16.70
2022-12-25T11:24:18.573Z,20.30
2022-12-25T11:27:00.986Z,19.50
2022-12-25T11:29:40.761Z,21.15
2022-12-25T11:32:31.967Z,21.90
2022-12-25T11:35:01.460Z,19.38
2022-12-25T11:37:43.553Z,18.17
2022-12-25T11:40:16.384Z,19.45
2022-12-25T11:42:53.301Z,18.67
2022-12-25T11:45:28.529Z,17.98
2022-12-25T11:48:02.630Z,17.45
2022-12-25T11:50:36.242Z,18.65
2022-12-25T11:53:07.528Z,18.40
2022-12-25T11:55:44.473Z,19.05
2022-12-25T11:58:26.298Z,17.55
2022-12-25T12:00:56.463Z,17.15
2022-12-25T12:03:26.996Z,17.73
2022-12-25T12:06:14.046Z,18.13
2022-12-25T12:08:41.550Z,29.63
2022-12-25T12:11:17.442Z,18.05
2022-12-25T12:14:30.753Z,18.55
2022-12-25T12:16:57.570Z,16.95
2022-12-25T12:19:34.698Z,20.38
2022-12-25T12:22:04.449Z,20.38
2022-12-25T12:25:01.317Z,25.40
2022-12-25T12:27:38.790Z,21.42
2022-12-25T12:30:17.426Z,20.63
2022-12-25T12:32:47.708Z,20.50
2022-12-25T12:35:23.208Z,20.30
2022-12-25T12:37:56.420Z,19.38
2022-12-25T12:40:37.662Z,19.90
2022-12-25T12:43:07.241Z,17.08
2022-12-25T12:45:37.772Z,19.70
2022-12-25T12:48:16.318Z,19.80
2022-12-25T12:50:43.660Z,19.00
2022-12-25T12:53:24.536Z,18.55
2022-12-25T12:55:52.637Z,18.88
2022-12-25T12:58:30.860Z,23.15
2022-12-25T13:01:00.609Z,19.95
2022-12-25T13:04:19.277Z,18.98
2022-12-25T13:07:44.178Z,18.60
2022-12-25T13:10:38.200Z,19.10
2022-12-25T13:13:36.384Z,18.20
2022-12-25T13:16:03.999Z,19.95
2022-12-25T13:18:31.941Z,19.15
2022-12-25T13:21:02.370Z,20.42
2022-12-25T13:23:32.423Z,19.00
2022-12-25T13:26:03.480Z,17.95
2022-12-25T13:28:36.426Z,19.70
2022-12-25T13:31:18.753Z,21.13
2022-12-25T13:33:50.572Z,19.55
2022-12-25T13:36:17.730Z,19.58
2022-12-25T13:38:51.909Z,20.73
2022-12-25T13:41:41.067Z,20.98
2022-12-25T13:44:31.012Z,19.40
2022-12-25T13:47:21.014Z,17.60
2022-12-25T13:49:49.635Z,23.52
2022-12-25T13:52:28.331Z,17.98
2022-12-25T13:55:18.733Z,18.85
2022-12-25T13:58:01.184Z,19.13
2022-12-25T14:00:53.035Z,20.02
2022-12-25T14:03:27.026Z,19.52
2022-12-25T14:06:07.349Z,23.52
2022-12-25T14:08:35.819Z,32.85
2022-12-25T14:11:05.953Z,22.73
2022-12-25T14:13:38.747Z,23.17
2022-12-25T14:16:06.826Z,22.35
2022-12-25T14:18:33.820Z,23.35
2022-12-25T14:21:10.925Z,24.63
2022-12-25T14:23:50.178Z,24.27
2022-12-25T14:26:23.427Z,23.70
2022-12-25T14:28:54.499Z,23.08
2022-12-25T14:31:23.588Z,24.90
2022-12-25T14:33:52.619Z,24.95
2022-12-25T14:36:20.517Z,21.55
2022-12-25T14:39:00.660Z,23.52
2022-12-25T14:41:41.758Z,20.83
2022-12-25T14:44:40.909Z,23.10
2022-12-25T14:47:10.643Z,21.98
2022-12-25T14:49:38.154Z,21.58
2022-12-25T14:52:42.527Z,23.92
2022-12-25T14:55:21.289Z,22.52
2022-12-25T14:58:08.270Z,22.17
2022-12-25T15:00:38.662Z,30.48
2022-12-25T15:03:09.137Z,22.60
2022-12-25T15:05:39.198Z,21.23
2022-12-25T15:08:08.813Z,22.17
2022-12-25T15:13:23.535Z,21.48
2022-12-25T15:15:58.764Z,20.73
2022-12-25T15:18:32.199Z,21.20
2022-12-25T15:20:59.116Z,23.35
2022-12-25T15:23:25.842Z,23.33
2022-12-25T15:25:52.684Z,22.95
2022-12-25T15:28:19.868Z,22.23
2022-12-25T15:30:47.608Z,21.90
2022-12-25T15:33:16.772Z,21.95
2022-12-25T15:35:44.881Z,24.85
2022-12-25T15:38:13.145Z,23.48
2022-12-25T15:40:41.084Z,23.17
2022-12-25T15:43:20.891Z,22.58
2022-12-25T15:45:55.694Z,19.92
2022-12-25T15:48:22.367Z,22.65
2022-12-25T15:50:49.360Z,22.75
2022-12-25T15:53:16.003Z,22.50
2022-12-25T15:55:42.665Z,22.55
2022-12-25T15:58:15.021Z,23.50
2022-12-25T16:00:41.681Z,22.60
2022-12-25T16:03:08.448Z,24.95
2022-12-25T16:05:35.509Z,23.08
2022-12-25T16:08:02.503Z,23.42
2022-12-25T16:10:34.873Z,23.08
2022-12-25T16:13:05.002Z,22.33
2022-12-25T16:15:31.782Z,23.92
2022-12-25T16:17:58.679Z,22.00
2022-12-25T16:20:25.401Z,23.75
2022-12-25T16:22:52.061Z,20.88
2022-12-25T16:25:19.551Z,24.08
2022-12-25T16:27:47.051Z,25.35
2022-12-25T16:30:16.861Z,20.48
2022-12-25T16:32:45.371Z,20.65
2022-12-25T16:35:12.337Z,18.30
2022-12-25T16:37:39.105Z,19.90
2022-12-25T16:40:09.520Z,20.23
2022-12-25T16:42:37.366Z,23.55
2022-12-25T16:45:07.519Z,20.23
2022-12-25T16:47:34.579Z,19.75
2022-12-25T16:50:01.214Z,19.33
2022-12-25T16:52:28.088Z,23.50
2022-12-25T16:54:54.797Z,18.15
2022-12-25T16:57:21.518Z,18.58
2022-12-25T16:59:48.224Z,20.38
2022-12-25T17:02:20.824Z,20.50
2022-12-25T17:04:48.464Z,21.60
2022-12-25T17:07:17.058Z,19.38
2022-12-25T17:09:48.074Z,19.25
2022-12-25T17:12:15.360Z,18.58
2022-12-25T17:14:42.468Z,20.45
2022-12-25T17:17:09.299Z,17.98
2022-12-25T17:19:36.087Z,20.65
2022-12-25T17:22:02.907Z,21.25
2022-12-25T17:24:29.869Z,20.05
2022-12-25T17:26:56.612Z,18.40
2022-12-25T17:29:24.999Z,19.25
2022-12-25T17:31:52.162Z,19.17
2022-12-25T17:34:19.304Z,19.83
2022-12-25T17:36:45.954Z,17.70
2022-12-25T17:39:12.640Z,18.95
2022-12-25T17:41:39.360Z,19.30
2022-12-25T17:44:06.077Z,20.08
2022-12-25T17:46:33.193Z,19.08
2022-12-25T17:49:01.354Z,17.20
2022-12-25T17:51:31.012Z,20.02
2022-12-25T17:54:03.146Z,20.00
2022-12-25T17:56:30.828Z,20.25
2022-12-25T17:59:03.433Z,18.45
2022-12-25T18:01:30.327Z,21.00
2022-12-25T18:03:59.791Z,18.80
2022-12-25T18:06:28.329Z,19.90
2022-12-25T18:08:57.674Z,29.77
2022-12-25T18:11:29.268Z,18.70
2022-12-25T18:13:58.562Z,18.50
2022-12-25T18:16:27.217Z,17.83
2022-12-25T18:18:54.285Z,18.90
2022-12-25T18:21:22.975Z,17.52
2022-12-25T18:23:50.435Z,19.30
2022-12-25T18:26:18.623Z,19.02
2022-12-25T18:28:46.279Z,18.90
2022-12-25T18:31:20.608Z,18.58
2022-12-25T18:33:47.667Z,18.98
2022-12-25T18:36:17.388Z,17.73
2022-12-25T18:38:44.660Z,19.00
2022-12-25T18:41:12.307Z,17.23
2022-12-25T18:43:52.569Z,18.95
2022-12-25T18:46:26.589Z,20.33
2022-12-25T18:48:56.596Z,19.65
2022-12-25T18:51:23.623Z,18.13
2022-12-25T18:53:50.997Z,18.23
2022-12-25T18:56:20.016Z,17.95
2022-12-25T18:58:47.806Z,17.95
2022-12-25T19:01:21.908Z,17.77
2022-12-25T19:06:27.671Z,17.45
2022-12-25T19:08:56.253Z,20.60
2022-12-25T19:11:23.319Z,19.15
2022-12-25T19:13:50.127Z,17.90
2022-12-25T19:16:17.030Z,19.23
2022-12-25T19:18:45.296Z,20.23
2022-12-25T19:21:12.263Z,17.73
2022-12-25T19:23:39.480Z,17.92
2022-12-25T19:26:08.502Z,20.10
2022-12-25T19:28:36.599Z,19.73
2022-12-25T19:31:07.239Z,18.80
2022-12-25T19:33:36.711Z,18.00
2022-12-25T19:36:10.775Z,16.92
2022-12-25T19:38:37.883Z,19.50
2022-12-25T19:41:16.964Z,19.00
2022-12-25T19:43:47.631Z,17.50
2022-12-25T19:46:26.247Z,20.63
2022-12-25T19:48:54.560Z,17.58
2022-12-25T19:51:28.842Z,19.13
2022-12-25T19:53:56.606Z,18.70
2022-12-25T19:56:27.993Z,17.83
2022-12-25T19:58:55.837Z,17.17
2022-12-25T20:01:25.661Z,19.13
2022-12-25T20:03:53.186Z,17.92
2022-12-25T20:06:27.982Z,16.55
2022-12-25T20:09:00.313Z,17.25
2022-12-25T20:11:29.168Z,16.08
2022-12-25T20:13:56.550Z,16.95
2022-12-25T20:16:24.935Z,17.70
2022-12-25T20:18:52.490Z,17.73
2022-12-25T20:21:22.153Z,18.15
2022-12-25T20:23:51.943Z,18.50
2022-12-25T20:26:22.324Z,18.00
2022-12-25T20:28:49.282Z,19.15
2022-12-25T20:31:27.427Z,17.58
2022-12-25T20:33:56.439Z,17.77
2022-12-25T20:36:23.393Z,18.02
2022-12-25T20:38:50.235Z,17.10
2022-12-25T20:41:29.358Z,16.15
2022-12-25T20:43:56.829Z,21.83
2022-12-25T20:46:25.417Z,18.00
2022-12-25T20:48:52.869Z,18.77
2022-12-25T20:51:24.428Z,16.80
2022-12-25T20:53:52.135Z,19.08
2022-12-25T20:56:22.101Z,18.55
2022-12-25T20:58:57.051Z,19.48
2022-12-25T21:01:24.884Z,20.10
2022-12-25T21:03:52.312Z,20.27
2022-12-25T21:06:20.510Z,18.95
2022-12-25T21:08:47.941Z,17.80
2022-12-25T21:11:15.639Z,20.20
2022-12-25T21:13:45.339Z,19.98
2022-12-25T21:16:20.328Z,20.35
2022-12-25T21:18:50.880Z,17.58
2022-12-25T21:21:18.103Z,17.73
2022-12-25T21:23:45.613Z,23.98
2022-12-25T21:26:21.656Z,20.23
2022-12-25T21:28:50.698Z,19.33
2022-12-25T21:31:19.220Z,17.40
2022-12-25T21:33:52.608Z,19.17
2022-12-25T21:36:31.423Z,22.13
2022-12-25T21:39:00.527Z,18.25
2022-12-25T21:41:29.687Z,18.23
2022-12-25T21:43:57.388Z,19.83
2022-12-25T21:46:24.924Z,23.20
2022-12-25T21:48:52.796Z,19.08
2022-12-25T21:51:48.152Z,18.90
2022-12-25T21:54:15.805Z,22.40
2022-12-25T21:56:45.633Z,17.85
2022-12-25T21:59:21.767Z,17.63
2022-12-25T22:01:50.869Z,16.20
2022-12-25T22:04:20.930Z,22.38
2022-12-25T22:07:07.014Z,18.10
2022-12-25T22:09:34.246Z,18.80
2022-12-25T22:12:20.487Z,18.17
2022-12-25T22:14:54.213Z,17.58
2022-12-25T22:17:53.838Z,17.35
2022-12-25T22:20:27.580Z,16.10
2022-12-25T22:22:54.782Z,18.55
2022-12-25T22:25:23.553Z,18.85
2022-12-25T22:27:51.472Z,18.80
2022-12-25T22:30:22.906Z,16.88
2022-12-25T22:32:50.438Z,18.20
2022-12-25T22:35:18.596Z,17.48
2022-12-25T22:37:45.696Z,16.13
2022-12-25T22:40:16.336Z,18.98
2022-12-25T22:42:43.091Z,16.17
2022-12-25T22:45:10.982Z,17.60
2022-12-25T22:47:38.060Z,17.48
2022-12-25T22:50:05.384Z,18.85
2022-12-25T22:52:32.076Z,17.48
2022-12-25T22:54:58.868Z,19.25
2022-12-25T22:57:25.716Z,16.88
2022-12-25T22:59:53.221Z,19.40
2022-12-25T23:02:20.413Z,17.48
2022-12-25T23:04:47.575Z,19.27
2022-12-25T23:07:15.106Z,20.08
2022-12-25T23:09:43.871Z,18.77
2022-12-25T23:12:33.869Z,19.50
2022-12-25T23:15:01.099Z,17.48
2022-12-25T23:17:46.336Z,17.13
2022-12-25T23:20:33.570Z,19.10
2022-12-25T23:23:20.467Z,21.10
2022-12-25T23:26:06.939Z,18.67
2022-12-25T23:28:56.870Z,18.80
2022-12-25T23:31:29.740Z,17.25
2022-12-25T23:33:57.333Z,21.40
2022-12-25T23:36:24.269Z,16.75
2022-12-25T23:38:50.999Z,21.55
2022-12-25T23:41:17.734Z,18.08
2022-12-25T23:43:44.495Z,19.73
2022-12-25T23:46:11.284Z,19.38
2022-12-25T23:48:38.046Z,20.75
2022-12-25T23:51:06.571Z,17.85
2022-12-25T23:53:34.229Z,18.70
2022-12-25T23:56:01.617Z,16.17
2022-12-25T23:58:30.121Z,17.77
